Terminal Aerodrome Forecast
Issued by NWS Wilmington, OH

Current Version | Previous Version | Graphics & Text | Print | Product List | Glossary On
Versions: 1 2 3 4 5 6 7 8 9 10 11 12 13
000
FTUS41 KILN 212323
TAFCMH
TAF
KCMH 212323Z 2200/2224 33009KT P6SM VCSH OVC080
     FM220300 34012KT P6SM SCT150
     FM220500 36013G18KT P6SM SCT250
     FM221200 01011KT P6SM SKC=

USA.gov is the U.S. government's official web portal to all federal, state and local government web resources and services.